Time;durP1;ratioP1;P1;durP2;ratioP2;P2;SDS_P1;SDS_P2;PMS_P1;PMS_P2;Temp;Humidity;BMP_temperature;BMP_pressure;BME280_temperature;BME280_humidity;BME280_pressure;Samples;Min_cycle;Max_cycle;Signal;HPM_P1;HPM_P2
2022/04/04 00:00:10;;;;;;;6.70;2.85;;;3.00;99.90;;;;;;5030235;28;20073;-81
2022/04/04 00:02:36;;;;;;;5.53;3.15;;;3.00;99.90;;;;;;5032809;28;20531;-81
2022/04/04 00:05:01;;;;;;;3.38;2.65;;;2.90;99.90;;;;;;5032316;28;20164;-81
2022/04/04 00:07:27;;;;;;;5.75;3.28;;;2.90;99.90;;;;;;5033291;28;20041;-82
2022/04/04 00:09:54;;;;;;;4.10;3.08;;;2.90;99.90;;;;;;5032693;28;20039;-81
2022/04/04 00:12:20;;;;;;;3.97;3.10;;;2.90;99.90;;;;;;5016877;28;20464;-84
2022/04/04 00:14:46;;;;;;;4.32;3.40;;;2.80;99.90;;;;;;5029710;28;20042;-84
2022/04/04 00:17:12;;;;;;;5.35;3.25;;;2.80;99.90;;;;;;5027729;28;20049;-84
2022/04/04 00:19:38;;;;;;;5.68;3.40;;;2.80;99.90;;;;;;5031437;28;20091;-85
2022/04/04 00:22:04;;;;;;;5.38;3.60;;;2.80;99.90;;;;;;5015268;28;20041;-85
2022/04/04 00:24:30;;;;;;;5.75;3.65;;;2.80;99.90;;;;;;5016045;28;20052;-84
2022/04/04 00:26:55;;;;;;;6.00;3.85;;;2.80;99.90;;;;;;5016239;28;20144;-85
2022/04/04 00:29:21;;;;;;;5.97;4.43;;;2.80;99.90;;;;;;5032937;28;20046;-85
2022/04/04 00:31:46;;;;;;;5.47;3.78;;;2.80;99.90;;;;;;5032813;28;20037;-85
2022/04/04 00:34:12;;;;;;;4.30;3.90;;;2.80;99.90;;;;;;5032219;28;20049;-85
2022/04/04 00:36:39;;;;;;;7.35;4.65;;;2.90;99.90;;;;;;5031931;28;20075;-85
2022/04/04 00:39:04;;;;;;;5.60;4.13;;;2.80;99.90;;;;;;5020569;28;20046;-85
2022/04/04 00:41:30;;;;;;;7.68;4.40;;;2.90;99.90;;;;;;5032629;28;20172;-85
2022/04/04 00:43:56;;;;;;;7.20;4.53;;;2.90;99.90;;;;;;5032368;28;20073;-85
2022/04/04 00:46:21;;;;;;;7.97;4.80;;;2.90;99.90;;;;;;5032836;28;20037;-85
2022/04/04 00:48:48;;;;;;;4.22;3.83;;;3.00;99.90;;;;;;5021034;28;20216;-85
2022/04/04 00:51:13;;;;;;;5.00;4.43;;;3.10;99.90;;;;;;5009146;28;20056;-85
2022/04/04 00:53:39;;;;;;;6.85;4.80;;;3.00;99.90;;;;;;5031822;28;20029;-85
2022/04/04 00:56:06;;;;;;;7.13;5.00;;;3.10;99.90;;;;;;5016626;28;20049;-85
2022/04/04 00:58:36;;;;;;;8.10;4.97;;;3.10;99.90;;;;;;5028055;28;20046;-85
2022/04/04 01:01:02;;;;;;;6.68;5.07;;;3.10;99.90;;;;;;5012694;28;20081;-85
2022/04/04 01:03:28;;;;;;;6.47;4.85;;;3.10;99.90;;;;;;5018454;28;20379;-85
2022/04/04 01:05:55;;;;;;;5.60;5.07;;;3.20;99.90;;;;;;5031981;28;20033;-85
2022/04/04 01:08:21;;;;;;;7.40;5.05;;;3.20;99.90;;;;;;5013163;28;20041;-84
2022/04/04 01:10:47;;;;;;;8.27;5.00;;;3.30;99.90;;;;;;5015216;28;20037;-85
2022/04/04 01:13:13;;;;;;;6.50;4.90;;;3.30;99.90;;;;;;5016025;28;20094;-85
2022/04/04 01:15:39;;;;;;;7.20;5.07;;;3.30;99.90;;;;;;5031878;28;20041;-85
2022/04/04 01:18:07;;;;;;;10.05;6.00;;;3.30;99.90;;;;;;5014971;28;20068;-85
2022/04/04 01:20:33;;;;;;;5.70;5.10;;;3.30;99.90;;;;;;5032057;28;20091;-86
2022/04/04 01:22:59;;;;;;;6.43;5.13;;;3.40;99.90;;;;;;5032346;28;20042;-85
2022/04/04 01:25:29;;;;;;;7.40;6.28;;;3.40;99.90;;;;;;5031624;28;20041;-86
2022/04/04 01:27:56;;;;;;;6.80;5.45;;;3.40;99.90;;;;;;5032263;28;20727;-85
2022/04/04 01:30:23;;;;;;;6.50;5.35;;;3.50;99.90;;;;;;5021339;28;20057;-85
2022/04/04 01:32:49;;;;;;;7.32;6.05;;;3.50;99.90;;;;;;5035112;28;20080;-86
2022/04/04 01:35:19;;;;;;;9.57;6.72;;;3.50;99.90;;;;;;5034831;28;20092;-85
2022/04/04 01:37:45;;;;;;;9.50;6.72;;;3.50;99.90;;;;;;5035928;28;20084;-85
2022/04/04 01:40:11;;;;;;;8.57;7.38;;;3.60;99.90;;;;;;5030344;28;20061;-87
2022/04/04 01:42:38;;;;;;;9.43;6.70;;;3.70;99.90;;;;;;5035759;28;20134;-85
2022/04/04 01:45:08;;;;;;;7.70;6.65;;;3.80;99.90;;;;;;5035836;28;20045;-85
2022/04/04 01:47:34;;;;;;;11.85;7.95;;;3.80;99.90;;;;;;5035122;28;20124;-86
2022/04/04 01:50:00;;;;;;;10.13;8.75;;;3.80;99.90;;;;;;5019585;28;20042;-86
2022/04/04 01:52:26;;;;;;;10.50;8.15;;;3.80;99.90;;;;;;5035911;28;20148;-85
2022/04/04 01:54:51;;;;;;;11.90;9.50;;;3.80;99.90;;;;;;5034173;28;20542;-86
2022/04/04 01:57:17;;;;;;;13.85;9.52;;;3.80;99.90;;;;;;5034940;28;20041;-85
2022/04/04 01:59:43;;;;;;;13.45;10.63;;;3.80;99.90;;;;;;5018711;28;20110;-86
2022/04/04 02:02:09;;;;;;;9.93;8.90;;;3.80;99.90;;;;;;5035194;28;20384;-86
2022/04/04 02:04:35;;;;;;;13.48;10.25;;;4.00;99.90;;;;;;5035730;28;20084;-85
2022/04/04 02:07:01;;;;;;;11.43;10.10;;;4.00;99.90;;;;;;5034840;28;20033;-85
2022/04/04 02:09:26;;;;;;;12.50;9.65;;;4.00;99.90;;;;;;5035501;28;20046;-86
2022/04/04 02:11:52;;;;;;;13.25;10.55;;;4.00;99.90;;;;;;5034318;28;20036;-86
2022/04/04 02:14:17;;;;;;;11.60;10.05;;;4.10;99.90;;;;;;5035008;28;20443;-85
2022/04/04 02:16:43;;;;;;;13.43;10.75;;;4.10;99.90;;;;;;5034038;28;20044;-86
2022/04/04 02:19:09;;;;;;;13.85;10.75;;;4.10;99.90;;;;;;5035008;28;20384;-86
2022/04/04 02:21:35;;;;;;;15.00;9.48;;;4.10;99.90;;;;;;5018905;28;20037;-85
2022/04/04 02:24:01;;;;;;;13.95;11.50;;;4.10;99.90;;;;;;5034680;28;20488;-86
2022/04/04 02:26:27;;;;;;;13.23;11.90;;;4.10;99.90;;;;;;5019066;28;20043;-85
2022/04/04 02:28:53;;;;;;;15.00;11.15;;;4.10;99.90;;;;;;5034575;28;20115;-86
2022/04/04 02:31:18;;;;;;;13.18;11.35;;;4.00;99.90;;;;;;5034210;28;20041;-86
2022/04/04 02:33:44;;;;;;;13.00;9.90;;;4.10;99.90;;;;;;5033705;28;20120;-86
2022/04/04 02:36:10;;;;;;;12.55;11.10;;;4.10;99.90;;;;;;5035041;28;20045;-86
2022/04/04 02:38:36;;;;;;;13.80;11.20;;;4.20;99.90;;;;;;5034329;28;20049;-86
2022/04/04 02:41:02;;;;;;;14.65;10.27;;;4.20;99.90;;;;;;5034551;28;20099;-85
2022/04/04 02:43:27;;;;;;;14.07;11.57;;;4.30;99.90;;;;;;5033967;28;20037;-84
2022/04/04 02:45:53;;;;;;;13.52;11.77;;;4.30;99.90;;;;;;5004255;28;20045;-85
2022/04/04 02:48:18;;;;;;;11.90;10.63;;;4.30;99.90;;;;;;5032767;28;20112;-86
2022/04/04 02:50:46;;;;;;;13.88;10.70;;;4.30;99.90;;;;;;5016864;28;20055;-84
2022/04/04 02:53:12;;;;;;;14.35;11.52;;;4.30;99.90;;;;;;5020561;28;20634;-85
2022/04/04 02:58:23;;;;;;;13.32;9.98;;;4.30;99.90;;;;;;5034708;28;20479;-83
2022/04/04 03:00:48;;;;;;;9.52;8.48;;;4.40;99.90;;;;;;5033000;28;20034;-85
2022/04/04 03:03:14;;;;;;;12.85;10.95;;;4.30;99.90;;;;;;5033095;28;20041;-86
2022/04/04 03:05:39;;;;;;;15.85;11.45;;;4.40;99.90;;;;;;5011414;28;20121;-85
2022/04/04 03:08:05;;;;;;;15.00;10.75;;;4.40;99.90;;;;;;5028510;28;20141;-85
2022/04/04 03:10:32;;;;;;;11.90;10.43;;;4.40;99.90;;;;;;5017676;28;20475;-85
2022/04/04 03:12:59;;;;;;;13.70;11.45;;;4.40;99.90;;;;;;5033981;28;20037;-85
2022/04/04 03:15:25;;;;;;;18.75;11.43;;;4.40;99.90;;;;;;5034237;28;20483;-85
2022/04/04 03:17:54;;;;;;;16.83;12.38;;;4.40;99.90;;;;;;5033726;28;20175;-86
2022/04/04 03:20:22;;;;;;;12.60;10.77;;;4.40;99.90;;;;;;5017067;28;20045;-86
2022/04/04 03:22:51;;;;;;;14.90;11.20;;;4.40;99.90;;;;;;5034040;28;20041;-85
2022/04/04 03:25:17;;;;;;;14.50;12.13;;;4.50;99.90;;;;;;5033766;28;20476;-85
2022/04/04 03:27:45;;;;;;;11.10;9.90;;;4.40;99.90;;;;;;5033676;28;20086;-86
2022/04/04 03:30:18;;;;;;;13.75;11.80;;;4.50;99.90;;;;;;5007469;28;20046;-87
2022/04/04 03:32:47;;;;;;;13.77;11.20;;;4.50;99.90;;;;;;5017420;28;20037;-86
2022/04/04 03:35:17;;;;;;;15.98;12.40;;;4.50;99.90;;;;;;5032825;28;20038;-86
2022/04/04 03:37:48;;;;;;;15.27;11.85;;;4.60;99.90;;;;;;5032316;28;20061;-86
2022/04/04 03:40:14;;;;;;;15.25;12.38;;;4.60;99.90;;;;;;5033290;28;20164;-86
2022/04/04 03:42:40;;;;;;;13.93;11.55;;;4.60;99.90;;;;;;5013752;28;20064;-85
2022/04/04 03:45:07;;;;;;;14.32;11.77;;;4.80;99.90;;;;;;5013832;28;20099;-85
2022/04/04 03:47:33;;;;;;;18.85;12.85;;;4.80;99.90;;;;;;5024087;28;20038;-86
2022/04/04 03:49:59;;;;;;;17.58;12.77;;;4.80;99.90;;;;;;5048152;28;20063;-86
2022/04/04 03:52:25;;;;;;;14.68;10.07;;;4.80;99.90;;;;;;5032527;28;20029;-85
2022/04/04 03:54:51;;;;;;;14.35;11.52;;;4.90;99.90;;;;;;5022343;28;20117;-85
2022/04/04 03:57:17;;;;;;;17.08;11.80;;;4.90;99.90;;;;;;5013477;28;20076;-85
2022/04/04 03:59:43;;;;;;;14.80;11.68;;;4.90;99.90;;;;;;5016682;28;20040;-86
2022/04/04 04:02:09;;;;;;;14.85;12.55;;;4.90;99.90;;;;;;5032636;28;20045;-85
2022/04/04 04:04:34;;;;;;;14.18;11.82;;;4.90;99.90;;;;;;5033482;28;20132;-85
2022/04/04 04:07:00;;;;;;;15.57;11.73;;;4.90;99.90;;;;;;5032881;28;20099;-85
2022/04/04 04:09:26;;;;;;;16.48;13.15;;;4.90;99.90;;;;;;5033594;28;20042;-85
2022/04/04 04:11:51;;;;;;;13.45;10.50;;;5.00;99.90;;;;;;5033140;28;20519;-85
2022/04/04 04:14:17;;;;;;;17.65;11.90;;;5.00;99.90;;;;;;5016821;28;20042;-85
2022/04/04 04:16:43;;;;;;;15.70;11.32;;;5.00;99.90;;;;;;5032392;28;20048;-85
2022/04/04 04:20:19;;;;;;;19.15;12.50;;;5.10;99.90;;;;;;5032295;28;20073;-85
2022/04/04 04:21:54;;;;;;;14.45;11.57;;;5.20;99.90;;;;;;5032261;28;20391;-85
2022/04/04 04:24:19;;;;;;;14.40;11.93;;;5.20;99.90;;;;;;5029150;28;20041;-84
2022/04/04 04:26:45;;;;;;;19.27;12.60;;;5.30;99.90;;;;;;5033134;28;20087;-85
2022/04/04 04:29:10;;;;;;;15.80;12.40;;;5.30;99.90;;;;;;5010901;28;20041;-85
2022/04/04 04:31:36;;;;;;;14.52;11.60;;;5.20;99.90;;;;;;5032126;28;20073;-85
2022/04/04 04:34:03;;;;;;;14.90;11.13;;;5.30;99.90;;;;;;5032623;28;20053;-86
2022/04/04 04:36:28;;;;;;;20.60;13.63;;;5.30;99.90;;;;;;5032773;28;20045;-85
2022/04/04 04:38:54;;;;;;;14.45;11.43;;;5.30;99.90;;;;;;5032278;28;20052;-86
2022/04/04 04:41:20;;;;;;;14.02;9.45;;;5.30;99.90;;;;;;5033207;28;20422;-86
2022/04/04 04:43:45;;;;;;;17.42;12.13;;;5.30;99.90;;;;;;5032073;28;20037;-86
2022/04/04 04:46:11;;;;;;;14.93;11.38;;;5.30;99.90;;;;;;5030632;28;20053;-86
2022/04/04 04:48:36;;;;;;;15.55;10.65;;;5.30;99.90;;;;;;5022204;28;20034;-85
2022/04/04 04:51:02;;;;;;;12.43;10.38;;;5.30;99.90;;;;;;5026163;28;20510;-86
2022/04/04 04:53:28;;;;;;;15.45;11.40;;;5.40;99.90;;;;;;5016157;28;20040;-86
2022/04/04 04:55:53;;;;;;;14.27;11.13;;;5.30;99.90;;;;;;5031890;28;20056;-86
2022/04/04 04:58:19;;;;;;;16.83;12.13;;;5.40;99.90;;;;;;5032536;28;20068;-85
2022/04/04 05:00:45;;;;;;;12.82;10.48;;;5.30;99.90;;;;;;5032029;28;20045;-86
2022/04/04 05:03:26;;;;;;;19.00;12.30;;;5.40;99.90;;;;;;5031957;28;20046;-86
2022/04/04 05:05:52;;;;;;;14.52;12.02;;;5.40;99.90;;;;;;5032226;28;20057;-86
2022/04/04 05:08:17;;;;;;;13.60;12.07;;;5.40;99.90;;;;;;5031189;28;20041;-85
2022/04/04 05:10:43;;;;;;;15.13;12.30;;;5.40;99.90;;;;;;5031822;28;20504;-86
2022/04/04 05:13:08;;;;;;;15.70;11.85;;;5.40;99.90;;;;;;5031986;28;20519;-86
2022/04/04 05:15:34;;;;;;;15.65;12.57;;;5.40;99.90;;;;;;5031522;28;20041;-85
2022/04/04 05:18:00;;;;;;;18.25;12.13;;;5.40;99.90;;;;;;5031354;28;20041;-86
2022/04/04 05:20:25;;;;;;;15.27;12.27;;;5.30;99.90;;;;;;5016970;28;20050;-85
2022/04/04 05:22:51;;;;;;;14.88;13.32;;;5.30;99.90;;;;;;5017293;28;20053;-85
2022/04/04 05:25:17;;;;;;;15.98;12.85;;;5.20;99.90;;;;;;5014641;28;20029;-84
2022/04/04 05:27:42;;;;;;;13.07;11.23;;;5.30;99.90;;;;;;5031050;28;20452;-85
2022/04/04 05:30:09;;;;;;;16.30;12.82;;;5.30;99.90;;;;;;5031416;28;20037;-84
2022/04/04 05:32:36;;;;;;;18.70;13.52;;;5.30;99.90;;;;;;5032508;28;20037;-84
2022/04/04 05:35:06;;;;;;;17.95;14.25;;;5.30;99.90;;;;;;5014555;28;20087;-84
2022/04/04 05:37:32;;;;;;;14.20;12.60;;;5.20;99.90;;;;;;5031116;28;20065;-84
2022/04/04 05:39:58;;;;;;;18.77;14.35;;;5.20;99.90;;;;;;5015206;28;20156;-84
2022/04/04 05:42:24;;;;;;;15.50;12.57;;;5.20;99.90;;;;;;5011010;28;20077;-84
2022/04/04 05:44:49;;;;;;;17.02;14.52;;;5.30;99.90;;;;;;5031446;28;20045;-84
2022/04/04 05:47:19;;;;;;;16.98;14.18;;;5.20;99.90;;;;;;5030260;28;20026;-85
2022/04/04 05:49:45;;;;;;;21.50;15.80;;;5.20;99.90;;;;;;5028315;28;20046;-84
2022/04/04 05:52:11;;;;;;;17.13;13.68;;;5.10;99.90;;;;;;5004560;28;20041;-85
2022/04/04 05:54:53;;;;;;;16.48;13.88;;;5.20;99.90;;;;;;5021356;28;20499;-85
2022/04/04 05:57:29;;;;;;;15.63;13.95;;;5.10;99.90;;;;;;5006013;28;20056;-84
2022/04/04 05:59:55;;;;;;;18.25;13.63;;;5.10;99.90;;;;;;5003296;28;20049;-84
2022/04/04 06:02:22;;;;;;;16.33;12.40;;;5.10;99.90;;;;;;5028243;28;20072;-84
2022/04/04 06:04:49;;;;;;;16.08;13.68;;;5.20;99.90;;;;;;5031710;28;20056;-84
2022/04/04 06:07:14;;;;;;;17.48;13.75;;;5.20;99.90;;;;;;5030791;28;20048;-86
2022/04/04 06:09:40;;;;;;;17.77;12.23;;;5.30;99.90;;;;;;5030497;28;20041;-85
2022/04/04 06:12:06;;;;;;;18.23;14.05;;;5.30;99.90;;;;;;5029266;28;20041;-86
2022/04/04 06:14:32;;;;;;;12.43;8.95;;;5.30;99.90;;;;;;5031593;28;20129;-85
2022/04/04 06:16:57;;;;;;;14.95;10.88;;;5.30;99.90;;;;;;5025875;28;20041;-84
2022/04/04 06:19:23;;;;;;;14.88;13.38;;;5.30;99.90;;;;;;5031307;28;20036;-84
2022/04/04 06:21:48;;;;;;;10.68;7.97;;;5.30;99.90;;;;;;5024161;28;20079;-84
2022/04/04 06:24:14;;;;;;;15.98;12.52;;;5.30;99.90;;;;;;5032464;28;20033;-86
2022/04/04 06:26:40;;;;;;;16.75;13.13;;;5.40;99.90;;;;;;5035238;28;20078;-84
2022/04/04 06:29:09;;;;;;;17.13;12.82;;;5.40;99.90;;;;;;5035109;28;20076;-83
2022/04/04 06:31:36;;;;;;;17.45;13.07;;;5.40;99.90;;;;;;5034923;28;20053;-85
2022/04/04 06:34:04;;;;;;;15.00;12.30;;;5.40;99.90;;;;;;5035421;28;20489;-86
2022/04/04 06:36:30;;;;;;;15.43;13.75;;;5.30;99.90;;;;;;5032396;28;20088;-85
2022/04/04 06:38:56;;;;;;;17.42;11.75;;;5.30;99.90;;;;;;5028726;28;20057;-85
2022/04/04 06:41:22;;;;;;;17.02;12.70;;;5.40;99.90;;;;;;5001063;28;20053;-85
2022/04/04 06:43:47;;;;;;;18.00;13.68;;;5.30;99.90;;;;;;5033409;28;20403;-85
2022/04/04 06:46:13;;;;;;;13.02;11.68;;;5.30;99.90;;;;;;5029030;28;20045;-85
2022/04/04 06:48:39;;;;;;;16.58;13.70;;;5.40;99.90;;;;;;5001346;28;20042;-85
2022/04/04 06:51:05;;;;;;;14.70;11.88;;;5.40;99.90;;;;;;5018152;28;20080;-85
2022/04/04 06:53:31;;;;;;;16.33;12.52;;;5.40;99.90;;;;;;5021259;28;20057;-85
2022/04/04 06:55:57;;;;;;;13.82;10.93;;;5.30;99.90;;;;;;5004990;28;20571;-84
2022/04/04 06:58:24;;;;;;;12.25;10.85;;;5.40;99.90;;;;;;5027290;28;20037;-85
2022/04/04 07:00:50;;;;;;;12.05;10.63;;;5.40;99.90;;;;;;5017276;28;20116;-85
2022/04/04 07:03:15;;;;;;;15.70;12.40;;;5.40;99.90;;;;;;5034305;28;20575;-86
2022/04/04 07:05:41;;;;;;;16.23;11.63;;;5.40;99.90;;;;;;5027384;28;20638;-86
2022/04/04 07:08:07;;;;;;;12.57;10.30;;;5.40;99.90;;;;;;5016931;28;20072;-85
2022/04/04 07:10:33;;;;;;;12.90;11.60;;;5.40;99.90;;;;;;5033545;28;20104;-87
2022/04/04 07:12:59;;;;;;;14.15;10.23;;;5.40;99.90;;;;;;5014329;28;20695;-87
2022/04/04 07:15:25;;;;;;;12.48;11.18;;;5.40;99.90;;;;;;5034444;28;20083;-87
2022/04/04 07:17:50;;;;;;;13.48;11.27;;;5.50;99.90;;;;;;5002941;28;20042;-87
2022/04/04 07:20:16;;;;;;;15.65;11.48;;;5.40;99.90;;;;;;5031980;28;20446;-88
2022/04/04 07:22:43;;;;;;;13.93;12.23;;;5.40;99.90;;;;;;5032534;28;20491;-84
2022/04/04 07:25:10;;;;;;;17.02;13.52;;;5.40;99.90;;;;;;5020279;28;20492;-87
2022/04/04 07:27:37;;;;;;;13.98;10.98;;;5.40;99.90;;;;;;5033192;28;20048;-87
2022/04/04 07:30:03;;;;;;;13.02;10.80;;;5.50;99.90;;;;;;5017543;28;20069;-87
2022/04/04 07:32:29;;;;;;;16.42;11.90;;;5.50;99.90;;;;;;5028346;28;20029;-86
2022/04/04 07:34:54;;;;;;;12.70;11.43;;;5.50;99.90;;;;;;5016709;28;20493;-83
2022/04/04 07:37:20;;;;;;;14.48;12.57;;;5.60;99.90;;;;;;5033502;28;20041;-82
2022/04/04 07:39:46;;;;;;;13.77;12.23;;;5.50;99.90;;;;;;5028910;28;20049;-83
2022/04/04 07:42:13;;;;;;;13.90;12.60;;;5.60;99.90;;;;;;5033980;28;20041;-86
2022/04/04 07:44:39;;;;;;;17.92;13.40;;;5.60;99.90;;;;;;5031375;28;20086;-86
2022/04/04 07:47:05;;;;;;;13.73;12.32;;;5.60;99.90;;;;;;5026227;28;20046;-86
2022/04/04 07:49:31;;;;;;;13.40;12.00;;;5.60;99.90;;;;;;5033322;28;20083;-87
2022/04/04 07:51:56;;;;;;;15.27;11.80;;;5.50;99.90;;;;;;5010163;28;20041;-87
2022/04/04 07:54:22;;;;;;;17.83;11.45;;;5.70;99.90;;;;;;5017131;28;20040;-87
2022/04/04 07:56:47;;;;;;;15.52;12.68;;;5.70;99.90;;;;;;5025718;28;20116;-87
2022/04/04 07:59:13;;;;;;;15.10;13.25;;;5.70;99.90;;;;;;5013748;28;20065;-87
2022/04/04 08:01:38;;;;;;;14.60;11.65;;;5.70;99.90;;;;;;5032882;28;20557;-87
2022/04/04 08:04:04;;;;;;;13.95;12.50;;;5.70;99.90;;;;;;5021323;28;20037;-87
2022/04/04 08:06:30;;;;;;;17.80;12.82;;;5.70;99.90;;;;;;5024162;28;20040;-89
2022/04/04 08:08:56;;;;;;;13.18;11.48;;;5.70;99.90;;;;;;5026189;28;20475;-88
2022/04/04 08:11:22;;;;;;;12.75;10.40;;;5.70;99.90;;;;;;5014976;28;20518;-87
2022/04/04 08:13:47;;;;;;;13.45;11.93;;;5.80;99.90;;;;;;5007180;28;20030;-88
2022/04/04 08:16:13;;;;;;;9.93;8.57;;;5.80;99.90;;;;;;5010949;28;20041;-85
2022/04/04 08:18:38;;;;;;;10.85;9.68;;;6.00;99.90;;;;;;5012664;28;20410;-87
2022/04/04 08:21:04;;;;;;;10.63;8.88;;;6.00;99.90;;;;;;5014778;28;20411;-87
2022/04/04 08:23:31;;;;;;;9.85;8.48;;;6.00;99.90;;;;;;5014477;28;20095;-88
2022/04/04 08:25:57;;;;;;;9.35;8.38;;;6.10;99.90;;;;;;5030643;28;20056;-87
2022/04/04 08:28:23;;;;;;;8.68;7.18;;;6.10;99.90;;;;;;5009071;28;20041;-88
2022/04/04 08:30:50;;;;;;;10.93;8.43;;;6.10;99.90;;;;;;5014306;28;20049;-88
2022/04/04 08:33:17;;;;;;;8.75;7.65;;;6.20;99.90;;;;;;5021793;28;20053;-85
2022/04/04 08:35:43;;;;;;;9.27;8.20;;;6.20;99.90;;;;;;5009025;28;20061;-87
2022/04/04 08:38:08;;;;;;;11.23;7.50;;;6.30;99.90;;;;;;5004593;28;20108;-85
2022/04/04 08:40:36;;;;;;;7.28;6.55;;;6.20;99.90;;;;;;5013398;28;20049;-85
2022/04/04 08:43:03;;;;;;;8.88;5.70;;;6.20;99.90;;;;;;5030307;28;20045;-88
2022/04/04 08:45:29;;;;;;;6.75;6.07;;;6.30;99.90;;;;;;5027951;28;20383;-88
2022/04/04 08:47:55;;;;;;;8.02;7.00;;;6.30;99.90;;;;;;5030182;28;20030;-87
2022/04/04 08:50:21;;;;;;;9.98;7.07;;;6.30;99.90;;;;;;5027850;28;20096;-87
2022/04/04 08:52:47;;;;;;;5.60;5.03;;;6.40;99.90;;;;;;5030597;28;20033;-86
2022/04/04 08:55:15;;;;;;;6.40;5.80;;;6.50;99.90;;;;;;5031432;28;20120;-89
2022/04/04 08:57:41;;;;;;;7.13;5.07;;;6.50;99.90;;;;;;5032744;28;20048;-87
2022/04/04 09:00:10;;;;;;;5.00;3.42;;;6.60;99.90;;;;;;5030233;28;20045;-87
2022/04/04 09:02:36;;;;;;;5.78;4.40;;;6.70;99.90;;;;;;5021311;28;20049;-88
2022/04/04 09:05:04;;;;;;;4.72;3.72;;;6.80;99.90;;;;;;5022709;28;20522;-89
2022/04/04 09:07:29;;;;;;;6.13;4.38;;;6.70;99.90;;;;;;5027437;28;20120;-89
2022/04/04 09:09:55;;;;;;;3.60;2.67;;;6.70;99.90;;;;;;5031504;28;20128;-89
2022/04/04 09:12:22;;;;;;;4.72;3.28;;;6.70;99.90;;;;;;5022449;28;20034;-87
2022/04/04 09:14:57;;;;;;;4.28;2.60;;;6.90;99.90;;;;;;5031538;28;20049;-86
2022/04/04 09:17:29;;;;;;;3.38;2.45;;;6.90;99.90;;;;;;5028525;28;20033;-87
2022/04/04 09:19:55;;;;;;;4.10;2.70;;;6.80;99.90;;;;;;5030942;28;20042;-84
2022/04/04 09:22:22;;;;;;;6.18;2.75;;;6.80;99.90;;;;;;5021138;28;20120;-91
2022/04/04 09:24:56;;;;;;;2.72;2.40;;;6.80;99.90;;;;;;5028920;28;20495;-88
2022/04/04 09:27:31;;;;;;;4.20;2.25;;;6.90;99.90;;;;;;5012439;28;20513;-89
2022/04/04 09:29:59;;;;;;;2.92;2.13;;;6.90;99.90;;;;;;5026369;28;20381;-85
2022/04/04 09:32:46;;;;;;;5.00;2.45;;;6.90;99.90;;;;;;5009844;28;20413;-86
2022/04/04 09:35:18;;;;;;;1.77;1.65;;;6.90;99.90;;;;;;5023221;28;20443;-87
2022/04/04 09:37:48;;;;;;;3.05;1.85;;;6.90;99.90;;;;;;5026255;28;20051;-86
2022/04/04 09:40:18;;;;;;;4.35;1.88;;;7.00;99.90;;;;;;5031080;28;20045;-84
2022/04/04 09:42:58;;;;;;;2.88;2.10;;;7.10;99.90;;;;;;5024848;28;20534;-86
2022/04/04 09:45:26;;;;;;;2.40;1.58;;;7.10;99.90;;;;;;5014330;28;20368;-88
2022/04/04 09:48:08;;;;;;;4.30;1.42;;;7.10;99.90;;;;;;5029818;28;20254;-84
2022/04/04 09:50:48;;;;;;;2.92;1.65;;;7.10;99.90;;;;;;5004137;28;20088;-85
2022/04/04 09:53:16;;;;;;;4.25;2.20;;;7.10;99.90;;;;;;5025353;28;20072;-87
2022/04/04 09:55:44;;;;;;;4.57;2.17;;;7.10;99.90;;;;;;5033667;28;20073;-84
2022/04/04 09:58:14;;;;;;;3.78;2.30;;;7.10;99.90;;;;;;5027807;28;20060;-86
2022/04/04 10:00:42;;;;;;;3.47;2.10;;;7.20;99.90;;;;;;5033454;28;20513;-84
2022/04/04 10:03:12;;;;;;;3.03;2.13;;;7.20;99.90;;;;;;5015555;28;20551;-85
2022/04/04 10:05:41;;;;;;;4.57;2.70;;;7.20;99.90;;;;;;5012806;28;20041;-85
2022/04/04 10:08:07;;;;;;;3.13;2.13;;;7.20;99.90;;;;;;5032654;28;20044;-86
2022/04/04 10:10:33;;;;;;;5.50;2.50;;;7.20;99.90;;;;;;5017751;28;20367;-85
2022/04/04 10:12:59;;;;;;;2.63;1.73;;;7.20;99.90;;;;;;5032094;28;20103;-88
2022/04/04 10:15:26;;;;;;;2.85;2.15;;;7.30;99.90;;;;;;5033698;28;20038;-86
2022/04/04 10:17:53;;;;;;;3.17;1.80;;;7.30;99.90;;;;;;5024089;28;20045;-84
2022/04/04 10:20:20;;;;;;;4.28;2.20;;;7.30;99.90;;;;;;5026912;28;20042;-85
2022/04/04 10:22:49;;;;;;;2.83;1.98;;;7.30;99.90;;;;;;5026619;28;20065;-84
2022/04/04 10:25:16;;;;;;;4.72;2.80;;;7.20;99.90;;;;;;5007745;28;20395;-86
2022/04/04 10:27:46;;;;;;;4.90;2.40;;;7.20;99.90;;;;;;5001918;28;20108;-86
2022/04/04 10:30:13;;;;;;;3.50;2.45;;;7.30;99.90;;;;;;5030139;28;20112;-85
2022/04/04 10:32:53;;;;;;;2.67;1.98;;;7.50;99.90;;;;;;5032230;28;20038;-87
2022/04/04 10:35:24;;;;;;;4.60;2.88;;;7.50;99.90;;;;;;5035161;28;20034;-88
2022/04/04 10:37:50;;;;;;;2.92;2.03;;;7.40;99.90;;;;;;5015737;28;20049;-84
2022/04/04 10:40:27;;;;;;;3.85;2.10;;;7.40;99.90;;;;;;5037394;28;20052;-86
2022/04/04 10:43:12;;;;;;;4.18;2.33;;;7.50;99.90;;;;;;5035213;28;20034;-86
2022/04/04 10:46:02;;;;;;;3.17;2.42;;;7.50;99.90;;;;;;5003171;28;20091;-90
2022/04/04 10:48:32;;;;;;;4.53;2.92;;;7.40;99.90;;;;;;5013251;28;20424;-92
2022/04/04 10:51:18;;;;;;;3.85;2.38;;;7.40;99.90;;;;;;5034551;22;20075;-79
2022/04/04 10:53:57;;;;;;;2.75;1.80;;;7.50;99.90;;;;;;5022257;28;20060;-80
2022/04/04 10:56:24;;;;;;;4.55;2.47;;;7.50;99.90;;;;;;5031996;28;20453;-79
2022/04/04 10:58:52;;;;;;;3.33;2.58;;;7.50;99.90;;;;;;5022726;28;20493;-79
2022/04/04 11:01:20;;;;;;;4.20;2.38;;;7.50;99.90;;;;;;5030621;28;20041;-79
2022/04/04 11:03:52;;;;;;;2.95;2.17;;;7.50;99.90;;;;;;5032568;28;20092;-78
2022/04/04 11:09:15;;;;;;;2.90;2.38;;;7.60;99.90;;;;;;5027975;28;20054;-79
2022/04/04 11:11:55;;;;;;;2.13;1.80;;;7.60;99.90;;;;;;5026984;28;20542;-80
2022/04/04 11:14:26;;;;;;;2.40;1.30;;;7.60;99.90;;;;;;5028174;28;20549;-79
2022/04/04 11:17:23;;;;;;;2.85;1.98;;;7.70;99.90;;;;;;5030919;28;20451;-79
2022/04/04 11:19:52;;;;;;;2.80;1.65;;;7.70;99.90;;;;;;5028787;28;20427;-79
2022/04/04 11:22:19;;;;;;;2.53;1.83;;;7.70;99.90;;;;;;5028942;28;20048;-78
2022/04/04 11:24:54;;;;;;;2.00;1.58;;;7.70;99.90;;;;;;5025849;28;20033;-79
2022/04/04 11:27:27;;;;;;;2.35;1.92;;;7.90;99.90;;;;;;5028673;28;20045;-79
2022/04/04 11:29:53;;;;;;;2.45;1.70;;;7.80;99.90;;;;;;5024442;28;20052;-78
2022/04/04 11:32:46;;;;;;;2.00;1.33;;;7.80;99.90;;;;;;5028307;28;20045;-78
2022/04/04 11:35:22;;;;;;;1.92;1.40;;;7.90;99.90;;;;;;5021130;28;20057;-79
2022/04/04 11:38:12;;;;;;;2.15;1.70;;;7.90;99.90;;;;;;5027929;28;20049;-79
2022/04/04 11:40:44;;;;;;;2.60;1.23;;;8.00;99.90;;;;;;5041753;28;20052;-79
2022/04/04 11:43:13;;;;;;;1.88;1.20;;;8.10;99.90;;;;;;5021130;28;22192;-78
2022/04/04 11:45:40;;;;;;;2.45;1.27;;;8.10;99.90;;;;;;5010526;28;20045;-78
2022/04/04 11:48:11;;;;;;;1.05;0.70;;;8.20;99.90;;;;;;5013138;28;20095;-78
2022/04/04 11:50:37;;;;;;;1.10;0.88;;;8.40;99.90;;;;;;5024458;28;20037;-78
2022/04/04 11:53:05;;;;;;;1.35;1.05;;;8.30;99.90;;;;;;4995843;28;20053;-79
2022/04/04 11:55:33;;;;;;;1.50;1.13;;;8.20;99.90;;;;;;5023281;28;20037;-80
2022/04/04 11:58:02;;;;;;;1.90;1.10;;;8.30;99.90;;;;;;5023916;28;20095;-79
2022/04/04 12:00:35;;;;;;;1.00;0.80;;;8.30;99.90;;;;;;5015787;28;20041;-79
2022/04/04 12:03:09;;;;;;;1.27;1.10;;;8.30;99.90;;;;;;5039270;28;20055;-79
2022/04/04 12:05:36;;;;;;;2.17;1.02;;;8.40;99.90;;;;;;5047191;28;20049;-79
2022/04/04 12:08:03;;;;;;;1.10;0.95;;;8.30;99.90;;;;;;5027112;28;20088;-79
2022/04/04 12:10:33;;;;;;;1.27;0.90;;;8.40;99.90;;;;;;5026755;28;20073;-80
2022/04/04 12:13:01;;;;;;;2.10;0.75;;;8.30;99.90;;;;;;5014007;28;20120;-78
2022/04/04 12:15:39;;;;;;;0.77;0.77;;;8.30;99.90;;;;;;5010534;28;20419;-78
2022/04/04 12:18:06;;;;;;;2.70;0.50;;;8.40;99.90;;;;;;5040331;28;20382;-79
2022/04/04 12:20:42;;;;;;;1.17;0.70;;;8.40;99.90;;;;;;5027881;28;20045;-78
2022/04/04 12:26:00;;;;;;;0.98;0.63;;;8.40;99.90;;;;;;5023209;28;20132;-78
2022/04/04 12:28:28;;;;;;;1.20;0.60;;;8.40;99.90;;;;;;4999592;28;20747;-78
2022/04/04 12:30:54;;;;;;;1.48;0.63;;;8.40;99.90;;;;;;5027802;28;20479;-79
2022/04/04 12:33:27;;;;;;;1.65;0.80;;;8.40;99.90;;;;;;5027538;28;20084;-79
2022/04/04 12:35:53;;;;;;;1.20;0.70;;;8.50;99.90;;;;;;5020818;28;20578;-80
2022/04/04 12:38:31;;;;;;;1.13;0.70;;;8.40;99.90;;;;;;5020655;28;20117;-78
2022/04/04 12:41:05;;;;;;;2.35;0.80;;;8.50;99.90;;;;;;5024760;28;20050;-78
2022/04/04 12:43:31;;;;;;;0.93;0.70;;;8.50;99.90;;;;;;5005690;28;20041;-78
2022/04/04 12:45:57;;;;;;;1.08;0.40;;;8.50;99.90;;;;;;5021699;28;20048;-79
2022/04/04 12:48:35;;;;;;;1.10;0.60;;;8.60;99.90;;;;;;5021921;28;20406;-77
2022/04/04 12:51:01;;;;;;;0.60;0.60;;;8.70;99.90;;;;;;5010563;28;20037;-79
2022/04/04 12:53:27;;;;;;;0.93;0.63;;;8.70;99.90;;;;;;5027844;28;20045;-79
2022/04/04 12:56:06;;;;;;;0.60;0.60;;;8.60;99.90;;;;;;5029686;28;20124;-76
2022/04/04 12:58:33;;;;;;;0.60;0.60;;;8.70;99.90;;;;;;5026110;28;20029;-76